createdAt,value
2018-11-03T00:04:58.979Z,10.83
2018-11-03T00:10:03.854Z,10.79
2018-11-03T00:15:09.974Z,10.81
2018-11-03T00:20:15.079Z,10.81
2018-11-03T00:25:19.413Z,10.74
2018-11-03T00:30:24.005Z,10.67
2018-11-03T00:35:28.626Z,10.62
2018-11-03T00:40:33.225Z,10.60
2018-11-03T00:45:37.442Z,10.57
2018-11-03T00:50:41.784Z,10.55
2018-11-03T00:55:46.400Z,10.54
2018-11-03T01:00:50.891Z,10.51
2018-11-03T01:05:55.589Z,10.47
2018-11-03T01:11:00.078Z,10.46
2018-11-03T01:16:04.374Z,10.41
2018-11-03T01:21:08.712Z,10.41
2018-11-03T01:26:13.710Z,10.38
2018-11-03T01:31:27.461Z,10.39
2018-11-03T01:36:31.859Z,10.46
2018-11-03T01:41:36.175Z,10.44
2018-11-03T01:46:41.244Z,10.39
2018-11-03T01:51:45.990Z,10.32
2018-11-03T01:56:50.498Z,10.31
2018-11-03T02:01:55.010Z,10.30
2018-11-03T02:06:59.518Z,10.30
2018-11-03T02:17:26.802Z,10.35
2018-11-03T02:22:36.838Z,10.41
2018-11-03T02:27:41.294Z,10.35
2018-11-03T02:32:59.356Z,10.31
2018-11-03T02:38:04.258Z,10.33
2018-11-03T02:43:09.697Z,10.30
2018-11-03T02:48:14.403Z,10.30
2018-11-03T02:53:19.680Z,10.26
2018-11-03T02:58:24.894Z,10.22
2018-11-03T03:03:29.685Z,10.22
2018-11-03T03:08:34.707Z,10.21
2018-11-03T03:13:39.799Z,10.14
2018-11-03T03:18:44.368Z,10.08
2018-11-03T03:23:49.590Z,10.06
2018-11-03T03:28:54.528Z,10.05
2018-11-03T03:33:59.064Z,10.05
2018-11-03T03:39:03.349Z,10.01
2018-11-03T03:44:08.136Z,9.97
2018-11-03T03:49:12.785Z,9.95
2018-11-03T03:54:18.176Z,9.95
2018-11-03T03:59:22.831Z,9.95
2018-11-03T04:04:27.383Z,9.96
2018-11-03T04:09:32.715Z,9.92
2018-11-03T04:14:43.017Z,9.91
2018-11-03T04:19:49.319Z,9.94
2018-11-03T04:24:53.990Z,9.96
2018-11-03T04:29:58.696Z,10.01
2018-11-03T04:35:13.342Z,9.99
2018-11-03T04:40:18.753Z,9.88
2018-11-03T04:45:23.327Z,9.84
2018-11-03T04:50:29.549Z,9.80
2018-11-03T04:55:34.233Z,9.86
2018-11-03T05:00:38.834Z,9.87
2018-11-03T05:05:43.558Z,9.86
2018-11-03T05:10:47.822Z,9.79
2018-11-03T05:15:53.242Z,9.78
2018-11-03T05:21:04.795Z,9.72
2018-11-03T05:26:10.363Z,9.68
2018-11-03T05:31:15.103Z,9.65
2018-11-03T05:36:21.094Z,9.62
2018-11-03T05:41:26.620Z,9.60
2018-11-03T05:46:31.129Z,9.59
2018-11-03T05:51:35.389Z,9.56
2018-11-03T05:56:39.954Z,9.57
2018-11-03T06:01:44.169Z,9.59
2018-11-03T06:06:48.488Z,9.61
2018-11-03T06:12:01.995Z,9.62
2018-11-03T06:17:06.543Z,9.54
2018-11-03T06:22:10.868Z,9.54
2018-11-03T06:27:15.601Z,9.56
2018-11-03T06:32:20.296Z,9.60
2018-11-03T06:37:24.711Z,9.58
2018-11-03T06:48:01.898Z,9.54
2018-11-03T06:58:40.678Z,9.60
2018-11-03T07:03:44.926Z,9.65
2018-11-03T07:08:49.769Z,9.61
2018-11-03T07:13:54.408Z,9.61
2018-11-03T07:18:59.257Z,9.64
2018-11-03T07:24:03.861Z,9.65
2018-11-03T07:29:08.275Z,9.68
2018-11-03T07:34:13.951Z,9.70
2018-11-03T07:39:18.471Z,9.72
2018-11-03T07:44:23.124Z,9.76
2018-11-03T07:49:28.458Z,9.81
2018-11-03T07:54:33.542Z,9.85
2018-11-03T07:59:40.321Z,9.91
2018-11-03T08:04:45.313Z,9.96
2018-11-03T08:09:53.471Z,10.01
2018-11-03T08:14:58.183Z,10.06
2018-11-03T08:20:02.860Z,10.24
2018-11-03T08:25:07.597Z,10.39
2018-11-03T08:30:13.874Z,10.37
2018-11-03T08:35:19.461Z,10.30
2018-11-03T08:40:23.710Z,10.25
2018-11-03T08:45:28.411Z,10.20
2018-11-03T08:50:33.071Z,10.20
2018-11-03T08:55:37.373Z,10.20
2018-11-03T09:00:41.691Z,10.22
2018-11-03T09:05:47.130Z,10.28
2018-11-03T09:10:51.725Z,10.34
2018-11-03T09:15:57.201Z,10.43
2018-11-03T09:21:11.107Z,10.42
2018-11-03T09:26:15.665Z,10.43
2018-11-03T09:31:20.387Z,10.30
2018-11-03T09:36:25.184Z,10.30
2018-11-03T09:41:30.095Z,10.29
2018-11-03T09:46:34.764Z,10.26
2018-11-03T09:51:52.758Z,10.25
2018-11-03T09:56:57.116Z,10.29
2018-11-03T10:02:01.698Z,10.36
2018-11-03T10:07:07.349Z,10.41
2018-11-03T10:12:11.835Z,10.49
2018-11-03T10:17:16.189Z,10.56
2018-11-03T10:22:21.106Z,10.63
2018-11-03T10:27:25.590Z,10.68
2018-11-03T10:32:35.965Z,10.68
2018-11-03T10:37:43.101Z,10.67
2018-11-03T10:42:49.026Z,10.70
2018-11-03T10:47:53.662Z,10.76
2018-11-03T10:53:00.040Z,10.83
2018-11-03T10:58:05.497Z,10.94
2018-11-03T11:03:15.239Z,10.95
2018-11-03T11:08:24.769Z,10.92
2018-11-03T11:13:30.947Z,10.94
2018-11-03T11:18:37.232Z,10.97
2018-11-03T11:23:41.977Z,11.04
2018-11-03T11:28:47.126Z,11.13
2018-11-03T11:33:58.457Z,11.19
2018-11-03T11:39:03.437Z,11.26
2018-11-03T11:44:19.183Z,11.32
2018-11-03T11:49:25.513Z,11.44
2018-11-03T11:54:30.565Z,11.46
2018-11-03T11:59:35.109Z,11.62
2018-11-03T12:04:40.669Z,11.76
2018-11-03T12:09:46.990Z,12.03
2018-11-03T12:14:56.662Z,12.31
2018-11-03T12:20:01.953Z,12.30
2018-11-03T12:25:12.479Z,12.21
2018-11-03T12:30:18.015Z,12.27
2018-11-03T12:35:24.035Z,12.43
2018-11-03T12:40:30.031Z,12.82
2018-11-03T12:45:34.677Z,13.31
2018-11-03T12:50:39.301Z,13.46
2018-11-03T12:55:44.490Z,13.07
2018-11-03T13:00:49.475Z,12.62
2018-11-03T13:05:55.062Z,12.36
2018-11-03T13:10:59.640Z,12.22
2018-11-03T13:16:04.228Z,12.19
2018-11-03T13:21:09.774Z,12.42
2018-11-03T13:26:14.495Z,13.05
2018-11-03T13:31:23.954Z,13.03
2018-11-03T13:36:28.765Z,12.90
2018-11-03T13:41:33.448Z,12.92
2018-11-03T13:46:38.313Z,12.71
2018-11-03T13:51:45.307Z,12.66
2018-11-03T13:56:50.061Z,12.41
2018-11-03T14:02:12.910Z,12.31
2018-11-03T14:07:17.647Z,12.21
2018-11-03T14:12:22.452Z,12.05
2018-11-03T14:17:29.222Z,11.96
2018-11-03T14:22:40.036Z,11.87
2018-11-03T14:27:46.245Z,11.82
2018-11-03T14:32:51.397Z,11.80
2018-11-03T14:37:56.312Z,11.69
2018-11-03T14:43:01.932Z,11.64
2018-11-03T14:48:07.899Z,11.64
2018-11-03T14:53:13.714Z,11.54
2018-11-03T14:58:19.383Z,11.50
2018-11-03T15:03:25.465Z,11.43
2018-11-03T15:08:30.796Z,11.39
2018-11-03T15:13:39.446Z,11.34
2018-11-03T15:18:44.360Z,11.30
2018-11-03T15:23:49.057Z,11.25
2018-11-03T15:28:54.040Z,11.15
2018-11-03T15:34:04.091Z,11.18
2018-11-03T15:39:09.510Z,11.17
2018-11-03T15:44:15.876Z,11.05
2018-11-03T15:49:20.793Z,10.95
2018-11-03T15:54:26.139Z,10.94
2018-11-03T15:59:32.461Z,10.87
2018-11-03T16:04:37.290Z,10.85
2018-11-03T16:09:42.148Z,10.82
2018-11-03T16:14:46.937Z,10.79
2018-11-03T16:19:51.882Z,10.77
2018-11-03T16:25:11.823Z,10.79
2018-11-03T16:30:17.809Z,10.74
2018-11-03T16:35:29.046Z,10.70
2018-11-03T16:40:37.061Z,10.70
2018-11-03T16:45:42.139Z,10.73
2018-11-03T16:50:49.314Z,10.73
2018-11-03T16:55:54.520Z,10.72
2018-11-03T17:00:59.584Z,10.73
2018-11-03T17:06:04.552Z,10.64
2018-11-03T17:11:09.523Z,10.60
2018-11-03T17:16:14.364Z,10.62
2018-11-03T17:21:24.236Z,10.63
2018-11-03T17:26:29.030Z,10.65
2018-11-03T17:31:33.972Z,10.58
2018-11-03T17:36:38.998Z,10.56
2018-11-03T17:41:43.986Z,10.57
2018-11-03T17:46:48.879Z,10.48
2018-11-03T17:52:03.056Z,10.41
2018-11-03T17:57:07.880Z,10.39
2018-11-03T18:02:12.712Z,10.36
2018-11-03T18:07:17.636Z,10.42
2018-11-03T18:12:22.558Z,10.37
2018-11-03T18:17:28.110Z,10.39
2018-11-03T18:22:33.513Z,10.41
2018-11-03T18:27:39.339Z,10.36
2018-11-03T18:32:44.011Z,10.31
2018-11-03T18:37:49.666Z,10.36
2018-11-03T18:42:55.049Z,10.34
2018-11-03T18:48:00.493Z,10.37
2018-11-03T18:53:07.510Z,10.39
2018-11-03T18:58:13.030Z,10.35
2018-11-03T19:03:18.193Z,10.48
2018-11-03T19:08:24.191Z,10.53
2018-11-03T19:13:28.889Z,10.57
2018-11-03T19:18:34.013Z,10.60
2018-11-03T19:23:40.287Z,10.63
2018-11-03T19:28:47.978Z,10.64
2018-11-03T19:33:58.187Z,10.64
2018-11-03T19:39:07.368Z,10.67
2018-11-03T19:44:17.526Z,10.69
2018-11-03T19:49:23.737Z,10.69
2018-11-03T19:54:35.027Z,10.71
2018-11-03T19:59:40.033Z,10.73
2018-11-03T20:04:57.072Z,10.72
2018-11-03T20:10:04.598Z,10.71
2018-11-03T20:15:11.612Z,10.73
2018-11-03T20:20:17.164Z,10.72
2018-11-03T20:25:35.197Z,10.73
2018-11-03T20:30:39.869Z,10.73
2018-11-03T20:36:06.802Z,10.76
2018-11-03T20:41:21.179Z,10.79
2018-11-03T20:46:26.083Z,10.79
2018-11-03T20:51:31.253Z,10.76
2018-11-03T20:56:36.228Z,10.81
2018-11-03T21:01:46.636Z,10.78
2018-11-03T21:06:51.441Z,10.76
2018-11-03T21:11:57.496Z,10.73
2018-11-03T21:17:04.731Z,10.72
2018-11-03T21:27:23.306Z,10.72
2018-11-03T21:32:37.697Z,10.70
2018-11-03T21:37:43.013Z,10.73
2018-11-03T21:42:48.318Z,10.68
2018-11-03T21:47:53.756Z,10.69
2018-11-03T21:53:04.644Z,10.72
2018-11-03T21:58:09.915Z,10.75
2018-11-03T22:03:17.931Z,10.72
2018-11-03T22:08:22.954Z,10.75
2018-11-03T22:13:38.273Z,10.74
2018-11-03T22:18:44.874Z,10.72
2018-11-03T22:24:03.468Z,10.73
2018-11-03T22:29:08.358Z,10.72
2018-11-03T22:34:13.403Z,10.71
2018-11-03T22:39:23.005Z,10.76
2018-11-03T22:44:36.568Z,10.75
2018-11-03T22:49:41.718Z,10.74
2018-11-03T22:54:54.179Z,10.73
2018-11-03T23:00:03.311Z,10.75
2018-11-03T23:10:34.860Z,10.81
2018-11-03T23:15:46.749Z,10.80
2018-11-03T23:20:51.478Z,10.82
2018-11-03T23:25:56.558Z,10.81
2018-11-03T23:31:01.108Z,10.83
2018-11-03T23:36:05.882Z,10.84
2018-11-03T23:41:13.071Z,10.82
2018-11-03T23:46:17.952Z,10.80
2018-11-03T23:51:22.598Z,10.81
2018-11-03T23:56:27.840Z,10.83
